Time;durP1;ratioP1;P1;durP2;ratioP2;P2;SDS_P1;SDS_P2;PMS_P1;PMS_P2;Temp;Humidity;BMP_temperature;BMP_pressure;BME280_temperature;BME280_humidity;BME280_pressure;Samples;Min_cycle;Max_cycle;Signal;HPM_P1;HPM_P2
2023/05/09 00:01:33;;;;;;;16.80;8.63;;;;;;;2.77;61.82;100816.91;7342507;19;20648;-76
2023/05/09 00:04:01;;;;;;;18.63;7.97;;;;;;;2.70;61.90;100817.94;7340375;19;20031;-65
2023/05/09 00:06:29;;;;;;;27.48;8.25;;;;;;;2.60;62.03;100814.59;7345469;19;20022;-76
2023/05/09 00:08:55;;;;;;;21.48;9.27;;;;;;;2.57;62.72;100811.19;7342503;19;20055;-73
2023/05/09 00:11:21;;;;;;;18.27;7.20;;;;;;;2.55;62.44;100814.72;7346684;19;20029;-65
2023/05/09 00:13:49;;;;;;;22.27;8.63;;;;;;;2.54;62.56;100817.38;7358074;19;20742;-63
2023/05/09 00:16:16;;;;;;;14.32;7.50;;;;;;;2.52;63.09;100820.03;7341759;19;20033;-65
2023/05/09 00:18:42;;;;;;;20.25;8.48;;;;;;;2.48;63.84;100813.06;7341428;19;20059;-65
2023/05/09 00:21:08;;;;;;;22.77;8.52;;;;;;;2.47;63.62;100816.63;7339133;19;20469;-68
2023/05/09 00:23:32;;;;;;;19.33;7.68;;;;;;;2.46;63.37;100814.03;7341211;19;20592;-67
2023/05/09 00:25:58;;;;;;;19.88;8.18;;;;;;;2.46;63.16;100820.16;7340435;19;20370;-68
2023/05/09 00:28:22;;;;;;;20.88;9.05;;;;;;;2.44;63.42;100821.94;7340730;19;20017;-66
2023/05/09 00:30:47;;;;;;;19.17;9.70;;;;;;;2.40;63.96;100822.91;7338558;19;20011;-68
2023/05/09 00:33:12;;;;;;;19.13;8.38;;;;;;;2.41;63.78;100824.63;7337526;19;20026;-70
2023/05/09 00:35:37;;;;;;;20.50;8.75;;;;;;;2.40;63.50;100816.75;7339636;19;20037;-75
2023/05/09 00:38:02;;;;;;;19.08;8.68;;;;;;;2.42;63.51;100823.75;7345138;19;20026;-75
2023/05/09 00:40:27;;;;;;;16.27;6.85;;;;;;;2.45;63.20;100822.81;7339920;19;20007;-65
2023/05/09 00:42:51;;;;;;;21.55;7.75;;;;;;;2.47;63.11;100816.63;7341128;19;20035;-65
2023/05/09 00:45:16;;;;;;;17.45;8.27;;;;;;;2.49;63.17;100825.34;7339505;19;20013;-63
2023/05/09 00:47:41;;;;;;;14.13;7.25;;;;;;;2.48;63.17;100823.59;7344664;19;20010;-68
2023/05/09 00:50:07;;;;;;;19.45;8.88;;;;;;;2.49;63.49;100824.47;7348122;19;20493;-66
2023/05/09 00:52:32;;;;;;;16.85;8.18;;;;;;;2.48;63.55;100823.59;7349298;19;20018;-65
2023/05/09 00:54:57;;;;;;;18.27;9.15;;;;;;;2.48;63.64;100826.25;7346504;19;20500;-65
2023/05/09 00:57:22;;;;;;;26.27;8.30;;;;;;;2.47;64.10;100819.28;7350388;19;20362;-65
2023/05/09 00:59:48;;;;;;;22.25;8.25;;;;;;;2.45;63.56;100823.69;7345013;19;20478;-66
2023/05/09 01:02:13;;;;;;;18.38;8.43;;;;;;;2.46;63.14;100824.56;7344909;19;20026;-66
2023/05/09 01:04:38;;;;;;;16.08;7.35;;;;;;;2.44;63.55;100826.34;7346693;19;20022;-67
2023/05/09 01:07:13;;;;;;;16.52;7.88;;;;;;;2.47;63.56;100821.03;7346506;19;20019;-65
2023/05/09 01:09:55;;;;;;;;;;;;;;;2.58;62.21;100829.59;7349311;19;20014;-63
2023/05/09 01:12:36;;;;;;;16.33;7.55;;;;;;;2.44;62.74;100823.72;7346051;19;19911;-67
2023/05/09 01:15:16;;;;;;;20.35;7.93;;;;;;;2.40;63.12;100828.16;7343512;19;20040;-65
2023/05/09 01:18:07;;;;;;;19.25;7.40;;;;;;;2.42;63.13;100823.75;7349932;19;20049;-64
2023/05/09 01:20:34;;;;;;;19.33;7.85;;;;;;;2.33;63.24;100826.56;7347355;19;20046;-64
2023/05/09 01:23:11;;;;;;;16.48;7.72;;;;;;;2.36;63.81;100828.25;7348049;19;20015;-62
2023/05/09 01:26:01;;;;;;;19.58;8.20;;;;;;;2.32;64.25;100827.44;7346045;19;20018;-62
2023/05/09 01:28:47;;;;;;;19.92;7.78;;;;;;;2.33;63.90;100831.81;7347373;19;20421;-62
2023/05/09 01:31:11;;;;;;;13.48;7.50;;;;;;;2.25;63.76;100831.09;7347645;19;20042;-66
2023/05/09 01:33:39;;;;;;;15.70;8.50;;;;;;;2.24;63.82;100823.22;7345621;19;20018;-69
2023/05/09 01:36:11;;;;;;;15.15;8.27;;;;;;;2.24;64.48;100828.50;7345268;19;20034;-62
2023/05/09 01:38:37;;;;;;;14.50;8.23;;;;;;;2.20;64.16;100832.94;7343633;19;20044;-64
2023/05/09 01:41:04;;;;;;;21.52;8.07;;;;;;;2.16;64.49;100842.63;7347295;19;20018;-63
2023/05/09 01:43:32;;;;;;;26.10;8.80;;;;;;;2.16;64.68;100841.78;7344923;19;20098;-63
2023/05/09 01:45:58;;;;;;;16.25;7.43;;;;;;;2.15;64.81;100846.16;7344799;19;20019;-63
2023/05/09 01:48:28;;;;;;;21.35;7.60;;;;;;;2.12;65.12;100840.97;7343665;19;20077;-71
2023/05/09 01:50:54;;;;;;;20.25;7.78;;;;;;;2.15;65.49;100835.63;7344417;19;20372;-63
2023/05/09 01:53:22;;;;;;;17.30;7.07;;;;;;;2.17;65.46;100840.88;7345788;19;20093;-65
2023/05/09 01:55:50;;;;;;;21.92;8.18;;;;;;;2.20;65.42;100832.94;7344303;19;20086;-63
2023/05/09 01:58:18;;;;;;;16.75;7.53;;;;;;;2.24;65.23;100836.38;7343118;19;20038;-66
2023/05/09 02:00:45;;;;;;;16.27;8.73;;;;;;;2.29;65.17;100832.75;7345961;19;20010;-64
2023/05/09 02:03:10;;;;;;;17.33;7.78;;;;;;;2.35;65.01;100832.66;7355094;19;20021;-67
2023/05/09 02:05:36;;;;;;;15.00;6.82;;;;;;;2.38;64.69;100829.94;7345304;19;20070;-66
2023/05/09 02:08:01;;;;;;;24.40;9.45;;;;;;;2.45;64.39;100836.84;7345037;19;20034;-67
2023/05/09 02:10:27;;;;;;;14.43;7.43;;;;;;;2.51;64.24;100834.09;7343776;19;20019;-65
2023/05/09 02:12:53;;;;;;;18.50;8.18;;;;;;;2.58;64.16;100836.63;7342689;19;20497;-65
2023/05/09 02:15:19;;;;;;;14.57;8.07;;;;;;;2.63;64.18;100838.25;7343607;19;20082;-65
2023/05/09 02:17:45;;;;;;;19.92;7.97;;;;;;;2.65;63.95;100825.91;7342787;19;20521;-64
2023/05/09 02:20:12;;;;;;;22.90;9.50;;;;;;;2.72;63.62;100839.81;7346593;19;20031;-67
2023/05/09 02:22:40;;;;;;;22.77;8.57;;;;;;;2.74;63.37;100825.72;7343922;19;20025;-65
2023/05/09 02:25:09;;;;;;;21.30;8.55;;;;;;;2.83;63.14;100835.19;7343609;19;20025;-72
2023/05/09 02:27:36;;;;;;;24.58;8.65;;;;;;;2.87;62.72;100834.25;7343418;19;20021;-70
2023/05/09 02:30:05;;;;;;;14.60;8.45;;;;;;;2.97;62.46;100840.16;7346988;19;20015;-68
2023/05/09 02:32:32;;;;;;;28.48;9.15;;;;;;;3.06;62.27;100839.97;7342123;19;20077;-67
2023/05/09 02:34:59;;;;;;;17.23;7.97;;;;;;;3.19;62.26;100836.16;7341363;19;20050;-65
2023/05/09 02:37:26;;;;;;;18.13;7.90;;;;;;;3.32;62.23;100850.81;7343734;19;20015;-65
2023/05/09 02:39:52;;;;;;;21.58;9.30;;;;;;;3.44;62.09;100836.47;7341354;19;20038;-67
2023/05/09 02:42:23;;;;;;;14.32;8.13;;;;;;;3.61;61.60;100842.25;7341792;19;20011;-66
2023/05/09 02:44:49;;;;;;;17.25;7.80;;;;;;;3.74;61.05;100833.09;7347475;19;20014;-66
2023/05/09 02:47:13;;;;;;;16.75;8.38;;;;;;;3.86;60.48;100840.72;7342890;19;20015;-66
2023/05/09 02:49:39;;;;;;;17.90;7.72;;;;;;;4.01;60.74;100842.09;7341809;19;20043;-67
2023/05/09 02:52:04;;;;;;;12.73;7.72;;;;;;;4.13;60.60;100840.94;7340313;19;20335;-68
2023/05/09 02:54:29;;;;;;;14.75;8.25;;;;;;;4.26;60.32;100845.84;7343487;19;20342;-64
2023/05/09 02:56:54;;;;;;;16.20;8.43;;;;;;;4.44;60.12;100847.13;7344553;19;20152;-69
2023/05/09 02:59:19;;;;;;;14.63;7.70;;;;;;;4.59;59.95;100845.84;7348031;19;20015;-68
2023/05/09 03:01:44;;;;;;;14.98;8.15;;;;;;;4.76;59.70;100846.22;7345778;19;20026;-69
2023/05/09 03:04:10;;;;;;;11.43;7.78;;;;;;;4.93;59.17;100846.59;7345086;19;20022;-64
2023/05/09 03:06:35;;;;;;;16.38;7.95;;;;;;;5.06;58.84;100836.53;7345941;19;20045;-65
2023/05/09 03:09:00;;;;;;;17.67;7.82;;;;;;;5.22;58.33;100840.44;7345412;19;20018;-67
2023/05/09 03:11:25;;;;;;;14.50;7.50;;;;;;;5.40;58.22;100842.53;7345458;19;20349;-61
2023/05/09 03:13:49;;;;;;;15.50;7.45;;;;;;;5.60;57.71;100846.31;7340442;19;20390;-66
2023/05/09 03:16:17;;;;;;;14.60;7.22;;;;;;;5.80;57.49;100847.41;7340615;19;20525;-69
2023/05/09 03:18:42;;;;;;;14.75;8.20;;;;;;;5.96;56.61;100847.81;7340024;19;20031;-66
2023/05/09 03:21:07;;;;;;;19.90;8.05;;;;;;;6.15;55.65;100848.03;7342020;19;20010;-66
2023/05/09 03:23:34;;;;;;;20.92;9.20;;;;;;;6.33;53.86;100846.53;7343654;19;20026;-66
2023/05/09 03:26:00;;;;;;;16.98;8.35;;;;;;;6.45;53.61;100841.66;7340940;19;20031;-67
2023/05/09 03:28:26;;;;;;;19.25;8.98;;;;;;;6.62;53.72;100843.72;7340976;19;20022;-69
2023/05/09 03:30:51;;;;;;;21.63;10.07;;;;;;;6.80;53.07;100848.34;7341919;19;20344;-67
2023/05/09 03:33:19;;;;;;;21.52;10.43;;;;;;;6.98;50.50;100849.47;7341538;19;20054;-69
2023/05/09 03:35:45;;;;;;;24.67;12.40;;;;;;;7.08;50.30;100839.38;7343740;19;20010;-65
2023/05/09 03:38:12;;;;;;;24.10;11.05;;;;;;;7.25;49.38;100839.59;7344359;19;20006;-65
2023/05/09 03:40:37;;;;;;;17.17;10.30;;;;;;;7.45;49.00;100847.63;7342886;19;20007;-66
2023/05/09 03:43:06;;;;;;;14.90;10.45;;;;;;;7.63;48.17;100848.69;7342494;19;20025;-64
2023/05/09 03:45:31;;;;;;;23.00;11.23;;;;;;;7.79;48.41;100851.59;7343077;19;20078;-65
2023/05/09 03:47:55;;;;;;;16.23;9.38;;;;;;;7.93;46.98;100843.91;7345705;19;20050;-64
2023/05/09 03:50:20;;;;;;;17.65;10.13;;;;;;;8.06;47.08;100845.13;7347661;19;20469;-71
2023/05/09 03:52:45;;;;;;;18.98;10.15;;;;;;;8.27;46.71;100849.53;7355140;19;20029;-70
2023/05/09 03:55:13;;;;;;;20.83;10.68;;;;;;;8.50;45.99;100845.91;7339365;19;20051;-70
2023/05/09 03:57:37;;;;;;;16.60;9.55;;;;;;;8.71;45.23;100850.28;7340335;19;20010;-69
2023/05/09 04:00:04;;;;;;;19.55;10.65;;;;;;;8.89;44.32;100845.94;7339808;19;20048;-70
2023/05/09 04:02:40;;;;;;;14.98;9.63;;;;;;;8.91;43.19;100848.53;7340393;19;20010;-71
2023/05/09 04:05:05;;;;;;;22.15;10.73;;;;;;;8.86;43.09;100851.41;7339210;19;20500;-70
2023/05/09 04:07:30;;;;;;;22.15;11.10;;;;;;;8.80;43.30;100854.34;7339478;19;20035;-69
2023/05/09 04:09:55;;;;;;;17.73;9.50;;;;;;;8.85;43.10;100859.44;7339958;19;20010;-70
2023/05/09 04:12:19;;;;;;;18.20;10.65;;;;;;;8.92;43.04;100852.91;7339319;19;20356;-72
2023/05/09 04:14:44;;;;;;;21.92;11.90;;;;;;;9.07;43.31;100852.22;7338454;19;20011;-70
2023/05/09 04:17:10;;;;;;;18.58;11.55;;;;;;;9.22;42.57;100854.19;7343231;19;20086;-70
2023/05/09 04:19:34;;;;;;;22.13;11.82;;;;;;;9.57;42.33;100847.19;7339087;19;20035;-71
2023/05/09 04:21:59;;;;;;;23.42;11.38;;;;;;;9.98;41.61;100849.59;7351075;19;20381;-70
2023/05/09 04:24:24;;;;;;;19.27;9.82;;;;;;;10.24;40.68;100846.53;7353685;19;20315;-71
2023/05/09 04:26:50;;;;;;;21.63;10.73;;;;;;;10.57;40.12;100841.25;7353237;19;20656;-71
2023/05/09 04:29:21;;;;;;;21.25;9.82;;;;;;;11.16;39.71;100851.41;7353454;19;20018;-71
2023/05/09 04:31:50;;;;;;;19.73;10.40;;;;;;;11.74;38.79;100847.31;7352861;19;20047;-71
2023/05/09 04:34:16;;;;;;;23.73;10.00;;;;;;;12.26;38.47;100851.34;7352019;19;20015;-70
2023/05/09 04:36:45;;;;;;;26.48;10.75;;;;;;;12.83;37.19;100842.56;7352943;19;20055;-72
2023/05/09 04:39:11;;;;;;;33.42;10.48;;;;;;;13.33;36.43;100842.97;7352741;19;20018;-73
2023/05/09 04:41:43;;;;;;;24.05;9.90;;;;;;;13.84;35.59;100850.41;7354276;19;20343;-71
2023/05/09 04:44:08;;;;;;;22.20;10.43;;;;;;;14.26;35.02;100849.38;7352580;19;20022;-72
2023/05/09 04:46:33;;;;;;;18.15;10.55;;;;;;;14.61;34.28;100845.16;7352562;19;20501;-72
2023/05/09 04:48:58;;;;;;;27.08;11.45;;;;;;;14.88;34.16;100842.41;7354285;19;20046;-72
2023/05/09 04:51:22;;;;;;;20.75;10.23;;;;;;;15.16;33.68;100838.59;7353242;19;20106;-71
2023/05/09 04:53:49;;;;;;;29.35;10.25;;;;;;;15.40;33.42;100839.53;7352487;19;20022;-65
2023/05/09 04:56:17;;;;;;;25.33;10.20;;;;;;;15.65;32.55;100851.22;7353118;19;20029;-65
2023/05/09 04:58:43;;;;;;;18.77;10.00;;;;;;;15.87;32.33;100835.22;7354125;19;20014;-66
2023/05/09 05:01:09;;;;;;;17.45;8.18;;;;;;;16.05;31.88;100839.19;7353391;19;20014;-65
2023/05/09 05:03:34;;;;;;;18.73;7.97;;;;;;;16.18;31.65;100840.00;7352034;19;20604;-69
2023/05/09 05:05:59;;;;;;;20.33;8.93;;;;;;;16.34;31.84;100839.69;7352575;19;20744;-69
2023/05/09 05:08:24;;;;;;;18.75;9.00;;;;;;;16.56;31.83;100837.06;7352192;19;20011;-69
2023/05/09 05:10:49;;;;;;;19.40;8.77;;;;;;;16.83;31.59;100844.84;7353752;19;20469;-67
2023/05/09 05:13:20;;;;;;;17.92;7.57;;;;;;;17.09;30.86;100836.56;7351745;19;20090;-65
2023/05/09 05:15:48;;;;;;;20.83;8.30;;;;;;;17.35;30.84;100843.41;7352444;19;20015;-65
2023/05/09 05:18:13;;;;;;;15.20;7.47;;;;;;;17.65;30.17;100846.34;7351894;19;20378;-66
2023/05/09 05:20:41;;;;;;;8.27;5.85;;;;;;;17.90;28.65;100844.31;7352469;19;20019;-69
2023/05/09 05:23:07;;;;;;;9.38;5.85;;;;;;;18.05;28.49;100833.13;7352180;19;20336;-70
2023/05/09 05:25:33;;;;;;;13.38;4.88;;;;;;;18.23;27.91;100841.50;7356444;19;20018;-70
2023/05/09 05:27:58;;;;;;;5.43;3.95;;;;;;;18.41;27.00;100834.53;7351993;19;20066;-69
2023/05/09 05:30:24;;;;;;;8.25;4.15;;;;;;;18.66;26.31;100827.06;7351655;19;20339;-69
2023/05/09 05:32:49;;;;;;;9.13;4.25;;;;;;;18.83;25.26;100834.56;7347327;19;20468;-70
2023/05/09 05:35:16;;;;;;;6.53;3.50;;;;;;;18.85;25.49;100829.88;7343412;19;20015;-69
2023/05/09 05:37:42;;;;;;;5.75;3.30;;;;;;;19.13;25.41;100833.72;7345135;19;20017;-69
2023/05/09 05:40:07;;;;;;;3.35;2.70;;;;;;;19.51;24.63;100824.94;7344239;19;20025;-69
2023/05/09 05:42:35;;;;;;;6.78;3.90;;;;;;;19.98;24.38;100827.88;7344376;19;20474;-69
2023/05/09 05:45:03;;;;;;;6.15;3.60;;;;;;;20.63;23.40;100824.47;7344244;19;20022;-69
2023/05/09 05:47:34;;;;;;;4.50;3.13;;;;;;;21.11;23.73;100827.00;7344168;19;20019;-69
2023/05/09 05:50:00;;;;;;;4.25;2.97;;;;;;;21.54;22.75;100820.16;7348121;19;20011;-73
2023/05/09 05:52:27;;;;;;;4.03;2.70;;;;;;;21.98;22.51;100821.16;7348999;19;20039;-73
2023/05/09 05:54:54;;;;;;;5.10;3.58;;;;;;;22.49;21.92;100804.13;7344678;19;20018;-73
2023/05/09 05:57:20;;;;;;;5.65;3.03;;;;;;;23.04;21.52;100815.56;7345570;19;20030;-73
2023/05/09 05:59:50;;;;;;;4.85;3.63;;;;;;;23.74;21.34;100810.81;7347312;19;20018;-73
2023/05/09 06:02:17;;;;;;;5.43;3.30;;;;;;;24.22;20.39;100812.78;7344776;19;20059;-73
2023/05/09 06:04:42;;;;;;;5.85;3.88;;;;;;;24.70;19.77;100808.34;7344144;19;20022;-73
2023/05/09 06:07:08;;;;;;;5.60;3.35;;;;;;;25.29;19.48;100806.16;7343475;19;20025;-73
2023/05/09 06:09:32;;;;;;;6.25;3.03;;;;;;;25.63;19.21;100809.47;7346034;19;20019;-73
2023/05/09 06:11:57;;;;;;;4.60;3.75;;;;;;;25.92;19.27;100806.06;7345206;19;20011;-71
2023/05/09 06:14:23;;;;;;;6.50;3.35;;;;;;;26.28;18.33;100800.88;7341222;19;20122;-74
2023/05/09 06:16:48;;;;;;;7.22;3.75;;;;;;;26.81;17.67;100796.28;7345213;19;20134;-74
2023/05/09 06:19:14;;;;;;;4.30;3.70;;;;;;;27.44;17.88;100805.81;7345884;19;20030;-73
2023/05/09 06:21:39;;;;;;;5.78;3.58;;;;;;;27.89;17.68;100790.16;7344647;19;20465;-73
2023/05/09 06:24:04;;;;;;;6.70;3.80;;;;;;;27.70;17.38;100791.66;7343323;19;20505;-74
2023/05/09 06:26:29;;;;;;;6.45;3.58;;;;;;;28.12;17.05;100790.84;7344689;19;20010;-74
2023/05/09 06:28:54;;;;;;;6.28;4.05;;;;;;;28.85;16.67;100790.47;7342925;19;20021;-74
2023/05/09 06:31:19;;;;;;;2.85;2.45;;;;;;;29.41;16.21;100793.16;7344454;19;20018;-74
2023/05/09 06:33:44;;;;;;;2.90;2.70;;;;;;;29.77;16.21;100784.63;7343309;19;20023;-74
2023/05/09 06:36:08;;;;;;;5.18;3.50;;;;;;;30.11;15.36;100777.34;7343676;19;20028;-74
2023/05/09 06:38:34;;;;;;;4.10;3.70;;;;;;;30.22;15.34;100779.47;7343608;19;20326;-74
2023/05/09 06:40:59;;;;;;;4.60;3.80;;;;;;;30.66;15.30;100776.97;7342569;19;20020;-75
2023/05/09 06:43:23;;;;;;;6.95;3.80;;;;;;;30.81;14.48;100770.38;7344346;19;20015;-74
2023/05/09 06:45:48;;;;;;;5.25;4.03;;;;;;;30.90;15.04;100769.09;7344732;19;20014;-74
2023/05/09 06:48:12;;;;;;;5.65;4.00;;;;;;;31.04;15.00;100768.81;7348805;19;20014;-74
2023/05/09 06:50:37;;;;;;;4.40;2.92;;;;;;;31.42;14.43;100773.63;7348889;19;20018;-74
2023/05/09 06:53:02;;;;;;;3.90;3.05;;;;;;;31.82;14.06;100771.56;7347719;19;20088;-75
2023/05/09 06:55:27;;;;;;;4.07;3.20;;;;;;;32.28;14.53;100764.91;7351959;19;20015;-70
2023/05/09 06:57:53;;;;;;;5.75;4.20;;;;;;;32.61;13.91;100764.63;7347647;19;20767;-71
2023/05/09 07:00:19;;;;;;;3.88;3.38;;;;;;;33.03;13.69;100771.22;7345322;19;20045;-72
2023/05/09 07:02:44;;;;;;;5.68;3.58;;;;;;;33.31;13.62;100771.56;7346153;19;20330;-66
2023/05/09 07:05:09;;;;;;;2.92;2.72;;;;;;;33.56;12.46;100774.22;7342876;19;20018;-69
2023/05/09 07:07:34;;;;;;;3.85;3.53;;;;;;;33.54;12.57;100765.31;7342955;19;20026;-69
2023/05/09 07:10:02;;;;;;;4.43;3.72;;;;;;;33.69;12.49;100756.63;7343027;19;20027;-70
2023/05/09 07:12:30;;;;;;;3.95;3.60;;;;;;;33.26;12.15;100763.13;7344572;19;20026;-74
2023/05/09 07:14:55;;;;;;;4.50;3.72;;;;;;;33.55;12.62;100755.94;7344570;19;20014;-74
2023/05/09 07:17:20;;;;;;;5.35;4.30;;;;;;;33.61;12.88;100748.66;7345937;19;20022;-74
2023/05/09 07:19:45;;;;;;;3.72;3.42;;;;;;;34.35;12.84;100741.81;7345966;19;20014;-74
2023/05/09 07:22:10;;;;;;;4.57;4.15;;;;;;;35.05;13.02;100748.22;7347205;19;20014;-74
2023/05/09 07:24:34;;;;;;;5.72;4.20;;;;;;;35.80;12.32;100744.53;7345451;19;20018;-74
2023/05/09 07:27:02;;;;;;;7.07;5.18;;;;;;;36.57;11.66;100744.81;7340661;19;20050;-74
2023/05/09 07:29:27;;;;;;;6.32;4.28;;;;;;;34.92;12.01;100737.41;7342832;19;20022;-75
2023/05/09 07:31:51;;;;;;;6.97;4.50;;;;;;;32.87;12.92;100746.97;7342266;19;20019;-73
2023/05/09 07:34:18;;;;;;;6.40;4.72;;;;;;;31.02;14.28;100742.59;7340725;19;20041;-73
2023/05/09 07:36:43;;;;;;;7.28;4.65;;;;;;;31.26;13.97;100735.53;7342014;19;20022;-74
2023/05/09 07:39:09;;;;;;;6.20;4.50;;;;;;;31.71;13.66;100728.13;7341630;19;20018;-74
2023/05/09 07:41:34;;;;;;;4.57;4.00;;;;;;;30.66;14.40;100732.91;7342558;19;20111;-74
2023/05/09 07:43:58;;;;;;;7.00;4.43;;;;;;;29.77;15.00;100732.41;7341464;19;20039;-73
2023/05/09 07:46:23;;;;;;;6.57;4.55;;;;;;;29.45;14.67;100731.25;7344556;19;20022;-69
2023/05/09 07:48:49;;;;;;;5.55;4.20;;;;;;;29.14;15.28;100734.47;7341636;19;20342;-70
2023/05/09 07:51:15;;;;;;;6.43;4.57;;;;;;;27.86;15.58;100724.81;7339931;19;20014;-70
2023/05/09 07:53:39;;;;;;;7.70;4.07;;;;;;;26.32;16.72;100728.38;7341239;19;20010;-72
2023/05/09 07:56:05;;;;;;;5.82;3.80;;;;;;;24.92;17.27;100734.00;7339432;19;20050;-73
2023/05/09 07:58:31;;;;;;;6.13;4.20;;;;;;;25.19;17.49;100729.09;7340697;19;20081;-73
2023/05/09 08:00:56;;;;;;;6.72;4.00;;;;;;;27.07;16.54;100716.47;7340680;19;20460;-75
2023/05/09 08:03:20;;;;;;;4.20;3.58;;;;;;;29.53;14.86;100705.50;7341801;19;20474;-75
2023/05/09 08:05:47;;;;;;;5.05;3.80;;;;;;;31.82;13.57;100699.00;7341040;19;20486;-75
2023/05/09 08:08:13;;;;;;;5.85;4.00;;;;;;;33.04;12.96;100703.84;7341217;19;20345;-75
2023/05/09 08:10:38;;;;;;;5.75;4.10;;;;;;;32.06;13.20;100704.53;7339794;19;20404;-75
2023/05/09 08:13:06;;;;;;;8.70;4.38;;;;;;;30.35;13.73;100691.44;7342440;19;20026;-75
2023/05/09 08:15:30;;;;;;;6.30;4.50;;;;;;;28.92;14.25;100701.81;7340866;19;20032;-75
2023/05/09 08:17:55;;;;;;;6.25;4.03;;;;;;;27.41;15.04;100692.06;7340788;19;20007;-76
2023/05/09 08:20:20;;;;;;;7.35;4.90;;;;;;;25.57;16.09;100702.78;7339353;19;20026;-75
2023/05/09 08:22:45;;;;;;;8.90;4.53;;;;;;;23.88;17.13;100703.09;7341322;19;20018;-75
2023/05/09 08:27:41;;;;;;;5.53;4.47;;;;;;;21.67;19.50;100695.81;7341312;19;20094;-75
2023/05/09 08:30:07;;;;;;;6.68;4.30;;;;;;;20.69;18.95;100693.78;7341016;19;20032;-75
2023/05/09 08:32:31;;;;;;;4.97;3.33;;;;;;;19.29;19.88;100685.38;7340607;19;20019;-72
2023/05/09 08:34:56;;;;;;;7.38;4.25;;;;;;;19.16;20.28;100684.78;7336527;19;20326;-72
2023/05/09 08:37:21;;;;;;;4.28;3.75;;;;;;;22.01;19.44;100682.34;7340483;19;20027;-76
2023/05/09 08:39:46;;;;;;;7.10;3.85;;;;;;;25.40;16.99;100676.59;7343292;19;20028;-70
2023/05/09 08:42:14;;;;;;;4.88;3.83;;;;;;;28.64;15.31;100672.50;7340715;19;20017;-70
2023/05/09 08:44:45;;;;;;;5.13;4.07;;;;;;;31.37;13.48;100669.56;7340731;19;20452;-71
2023/05/09 08:47:12;;;;;;;8.90;5.03;;;;;;;33.57;12.91;100670.00;7340468;19;20262;-71
2023/05/09 08:49:39;;;;;;;4.95;4.10;;;;;;;34.19;12.16;100665.84;7338959;19;20111;-71
2023/05/09 08:52:06;;;;;;;4.53;4.13;;;;;;;34.60;11.70;100656.59;7341755;19;20057;-71
2023/05/09 08:54:31;;;;;;;4.43;4.03;;;;;;;35.26;11.37;100658.03;7337447;19;20014;-71
2023/05/09 08:56:57;;;;;;;4.78;4.03;;;;;;;35.99;11.12;100663.59;7338548;19;20086;-71
2023/05/09 08:59:23;;;;;;;5.43;4.88;;;;;;;36.53;10.91;100663.06;7340176;19;20011;-71
2023/05/09 09:01:50;;;;;;;6.28;4.43;;;;;;;37.35;10.26;100666.72;7340113;19;20077;-71
2023/05/09 09:04:15;;;;;;;4.93;4.50;;;;;;;36.57;10.51;100653.94;7338286;19;20310;-71
2023/05/09 09:06:40;;;;;;;5.28;4.60;;;;;;;36.71;10.27;100654.47;7340027;19;20022;-77
2023/05/09 09:09:09;;;;;;;7.10;4.55;;;;;;;37.05;10.25;100655.16;7346147;19;20018;-77
2023/05/09 09:11:35;;;;;;;7.00;4.90;;;;;;;37.69;10.63;100644.28;7346946;19;20051;-76
2023/05/09 09:14:15;;;;;;;5.07;4.68;;;;;;;38.90;10.12;100643.47;7346652;19;20018;-76
2023/05/09 09:16:43;;;;;;;4.80;4.50;;;;;;;39.92;9.27;100640.72;7346106;19;20019;-73
2023/05/09 09:19:11;;;;;;;5.80;5.30;;;;;;;40.18;9.29;100738.50;7347410;19;20015;-77
2023/05/09 09:21:38;;;;;;;6.05;5.47;;;;;;;40.15;8.94;100618.91;7350247;19;20074;-77
2023/05/09 09:24:11;;;;;;;;;;;;;;;42.97;9.69;100728.69;7347486;19;20029;-77
2023/05/09 09:26:45;;;;;;;6.47;5.88;;;;;;;41.42;9.12;100736.03;7346299;19;19915;-77
2023/05/09 09:29:11;;;;;;;5.57;4.75;;;;;;;38.13;9.93;100611.53;7346659;19;20019;-76
2023/05/09 09:31:35;;;;;;;5.72;5.10;;;;;;;34.85;11.20;100607.31;7346499;19;20024;-76
2023/05/09 09:34:01;;;;;;;4.93;4.43;;;;;;;32.17;12.13;100619.38;7344009;19;20081;-76
2023/05/09 09:36:35;;;;;;;4.88;4.30;;;;;;;30.02;13.25;100613.59;7346360;19;20022;-75
2023/05/09 09:39:05;;;;;;;9.30;4.65;;;;;;;28.16;13.71;100622.16;7346116;19;20026;-74
2023/05/09 09:41:37;;;;;;;5.18;3.70;;;;;;;26.23;15.75;100620.09;7347470;19;20018;-74
2023/05/09 09:44:16;;;;;;;4.43;4.03;;;;;;;25.38;16.46;100615.91;7346455;19;20128;-74
2023/05/09 09:46:53;;;;;;;3.70;3.40;;;;;;;23.65;16.36;100615.78;7344303;19;20014;-74
2023/05/09 09:49:20;;;;;;;6.13;3.53;;;;;;;22.66;17.20;100617.56;7344822;19;20082;-74
2023/05/09 09:51:54;;;;;;;7.43;3.90;;;;;;;22.09;17.20;100622.69;7346972;19;20025;-74
2023/05/09 09:54:24;;;;;;;10.07;4.60;;;;;;;20.97;17.99;100629.59;7344011;19;20019;-75
2023/05/09 09:56:53;;;;;;;5.47;3.20;;;;;;;20.42;18.25;100621.47;7345687;19;20466;-74
2023/05/09 09:59:22;;;;;;;3.47;3.17;;;;;;;20.09;18.56;100624.69;7345156;19;20333;-71
2023/05/09 10:01:53;;;;;;;7.20;3.35;;;;;;;20.36;18.02;100622.06;7345197;19;20070;-71
2023/05/09 10:04:18;;;;;;;6.47;3.92;;;;;;;19.24;18.90;100617.34;7343066;19;20041;-71
2023/05/09 10:06:53;;;;;;;5.75;3.65;;;;;;;18.95;19.17;100614.63;7345560;19;20078;-70
2023/05/09 10:09:20;;;;;;;3.95;2.67;;;;;;;18.55;19.84;100616.44;7344953;19;20014;-71
2023/05/09 10:11:48;;;;;;;4.18;3.28;;;;;;;18.60;20.02;100617.78;7349045;19;20014;-72
2023/05/09 10:14:12;;;;;;;5.07;3.47;;;;;;;18.72;19.96;100613.13;7342809;19;20347;-75
2023/05/09 10:16:37;;;;;;;5.55;3.15;;;;;;;18.72;19.60;100613.13;7345140;19;20018;-76
2023/05/09 10:19:02;;;;;;;6.28;3.65;;;;;;;18.64;20.02;100602.16;7344156;19;20021;-76
2023/05/09 10:21:28;;;;;;;3.55;2.72;;;;;;;19.25;19.58;100605.53;7345240;19;20042;-75
2023/05/09 10:23:54;;;;;;;4.72;3.60;;;;;;;19.83;20.18;100609.09;7344175;19;20126;-75
2023/05/09 10:26:26;;;;;;;5.43;3.97;;;;;;;20.19;19.73;100609.28;7345299;19;20480;-76
2023/05/09 10:28:54;;;;;;;6.65;4.55;;;;;;;20.22;20.31;100607.09;7344447;19;20078;-75
2023/05/09 10:31:27;;;;;;;6.10;3.47;;;;;;;20.20;19.57;100605.56;7344197;19;20027;-76
2023/05/09 10:33:54;;;;;;;8.95;4.30;;;;;;;20.05;19.82;100605.19;7346600;19;20473;-75
2023/05/09 10:36:22;;;;;;;5.72;3.65;;;;;;;20.01;20.60;100598.34;7344368;19;20023;-75
2023/05/09 10:38:48;;;;;;;4.22;2.95;;;;;;;19.97;19.62;100605.06;7344162;19;20022;-75
2023/05/09 10:41:14;;;;;;;4.93;3.55;;;;;;;19.94;20.75;100600.78;7343368;19;20015;-75
2023/05/09 10:43:41;;;;;;;4.78;3.30;;;;;;;19.97;20.55;100606.94;7345924;19;20056;-75
2023/05/09 10:46:06;;;;;;;5.45;3.13;;;;;;;19.89;20.22;100591.41;7343756;19;20035;-76
2023/05/09 10:48:32;;;;;;;5.22;3.30;;;;;;;19.72;20.33;100598.44;7344257;19;20011;-75
2023/05/09 10:50:59;;;;;;;4.70;3.45;;;;;;;19.49;20.15;100592.47;7346695;19;20437;-75
2023/05/09 10:53:39;;;;;;;5.15;3.60;;;;;;;19.63;19.97;100593.88;7346750;19;20054;-68
2023/05/09 10:56:21;;;;;;;6.18;2.92;;;;;;;19.11;20.16;100578.91;7344514;19;20018;-68
2023/05/09 10:58:46;;;;;;;7.18;3.17;;;;;;;18.53;20.92;100581.47;7346303;19;20361;-68
2023/05/09 11:01:11;;;;;;;4.53;3.35;;;;;;;18.38;20.41;100574.78;7349294;19;20014;-69
2023/05/09 11:03:54;;;;;;;6.18;3.13;;;;;;;18.46;20.75;100578.47;7351754;19;20030;-71
2023/05/09 11:06:39;;;;;;;4.40;3.10;;;;;;;18.09;20.44;100571.94;7354154;19;20054;-68
2023/05/09 11:09:24;;;;;;;2.67;2.15;;;;;;;17.62;20.79;100574.19;7353601;19;20043;-69
2023/05/09 11:12:12;;;;;;;4.18;2.85;;;;;;;17.26;21.36;100564.72;7352990;19;20018;-69
2023/05/09 11:14:47;;;;;;;4.13;2.40;;;;;;;17.04;21.50;100560.25;7353527;19;20022;-70
2023/05/09 11:17:13;;;;;;;3.33;3.03;;;;;;;16.80;21.31;100553.41;7344174;19;20482;-70
2023/05/09 11:19:45;;;;;;;3.88;2.88;;;;;;;16.55;21.17;100551.84;7343289;19;20014;-70
2023/05/09 11:22:17;;;;;;;5.47;3.33;;;;;;;16.17;21.46;100555.78;7345162;19;20011;-70
2023/05/09 11:24:46;;;;;;;5.50;3.30;;;;;;;15.93;22.09;100557.72;7346965;19;20442;-70
2023/05/09 11:27:14;;;;;;;6.15;3.03;;;;;;;15.86;22.89;100556.53;7346296;19;20018;-70